createdAt,value
2023-02-03T00:01:50.842Z,25.50
2023-02-03T00:04:17.914Z,25.83
2023-02-03T00:06:45.182Z,24.33
2023-02-03T00:09:12.298Z,26.30
2023-02-03T00:11:39.287Z,25.75
2023-02-03T00:14:08.019Z,24.58
2023-02-03T00:16:35.487Z,23.05
2023-02-03T00:19:02.914Z,23.98
2023-02-03T00:21:29.939Z,25.85
2023-02-03T00:23:56.885Z,28.15
2023-02-03T00:26:25.939Z,27.25
2023-02-03T00:28:52.876Z,26.27
2023-02-03T00:31:23.217Z,22.85
2023-02-03T00:33:58.160Z,21.38
2023-02-03T00:36:25.951Z,21.13
2023-02-03T00:38:53.493Z,22.83
2023-02-03T00:41:21.505Z,18.95
2023-02-03T00:43:48.826Z,24.75
2023-02-03T00:46:16.218Z,23.02
2023-02-03T00:48:43.202Z,22.38
2023-02-03T00:51:10.282Z,23.40
2023-02-03T00:53:37.218Z,19.45
2023-02-03T00:56:04.377Z,24.42
2023-02-03T00:58:31.338Z,20.98
2023-02-03T01:00:58.307Z,17.55
2023-02-03T01:03:25.490Z,24.08
2023-02-03T01:05:52.609Z,20.50
2023-02-03T01:08:20.144Z,21.55
2023-02-03T01:10:47.077Z,18.85
2023-02-03T01:13:14.049Z,16.00
2023-02-03T01:15:48.423Z,17.23
2023-02-03T01:18:15.574Z,14.55
2023-02-03T01:20:44.391Z,17.05
2023-02-03T01:23:11.387Z,14.85
2023-02-03T01:25:38.282Z,14.95
2023-02-03T01:28:05.936Z,17.60
2023-02-03T01:30:33.270Z,18.20
2023-02-03T01:33:00.211Z,16.20
2023-02-03T01:35:27.387Z,12.73
2023-02-03T01:37:54.332Z,11.52
2023-02-03T01:40:21.493Z,12.23
2023-02-03T01:42:48.416Z,11.70
2023-02-03T01:45:15.363Z,13.68
2023-02-03T01:47:56.093Z,10.23
2023-02-03T01:50:28.416Z,13.80
2023-02-03T01:53:00.301Z,12.05
2023-02-03T01:55:34.649Z,12.45
2023-02-03T01:58:08.080Z,13.77
2023-02-03T02:00:35.210Z,10.70
2023-02-03T02:03:04.105Z,10.30
2023-02-03T02:05:53.197Z,12.70
2023-02-03T02:08:22.678Z,11.57
2023-02-03T02:10:50.657Z,13.60
2023-02-03T02:13:19.851Z,11.57
2023-02-03T02:16:06.835Z,11.98
2023-02-03T02:18:39.925Z,10.70
2023-02-03T02:21:27.052Z,10.40
2023-02-03T02:24:11.705Z,10.52
2023-02-03T02:26:57.569Z,11.85
2023-02-03T02:29:42.786Z,9.77
2023-02-03T02:32:35.739Z,12.05
2023-02-03T02:35:44.458Z,11.65
2023-02-03T02:38:14.095Z,12.75
2023-02-03T02:41:15.575Z,12.68
2023-02-03T02:43:48.461Z,13.48
2023-02-03T02:46:22.369Z,14.30
2023-02-03T02:49:00.048Z,10.95
2023-02-03T02:51:29.731Z,12.93
2023-02-03T02:54:02.031Z,11.70
2023-02-03T02:56:34.433Z,13.15
2023-02-03T02:59:04.694Z,13.95
2023-02-03T03:01:31.962Z,14.20
2023-02-03T03:04:03.925Z,13.25
2023-02-03T03:06:35.899Z,12.65
2023-02-03T03:09:19.545Z,12.15
2023-02-03T03:11:59.062Z,14.63
2023-02-03T03:14:29.792Z,11.48
2023-02-03T03:17:02.660Z,12.70
2023-02-03T03:19:40.029Z,18.63
2023-02-03T03:22:09.578Z,16.17
2023-02-03T03:24:46.764Z,13.73
2023-02-03T03:27:28.760Z,13.82
2023-02-03T03:30:04.723Z,14.98
2023-02-03T03:32:33.077Z,15.45
2023-02-03T03:35:01.885Z,12.75
2023-02-03T03:37:36.321Z,14.73
2023-02-03T03:40:12.188Z,15.80
2023-02-03T03:42:50.356Z,13.38
2023-02-03T03:45:19.525Z,16.13
2023-02-03T03:47:53.797Z,13.82
2023-02-03T03:50:53.910Z,11.52
2023-02-03T03:53:23.908Z,13.98
2023-02-03T03:55:53.238Z,12.82
2023-02-03T03:58:26.258Z,13.70
2023-02-03T04:00:57.806Z,15.43
2023-02-03T04:03:29.669Z,16.20
2023-02-03T04:05:56.549Z,12.88
2023-02-03T04:08:23.469Z,11.98
2023-02-03T04:10:50.414Z,13.82
2023-02-03T04:13:20.109Z,18.50
2023-02-03T04:15:47.126Z,14.20
2023-02-03T04:18:15.352Z,14.40
2023-02-03T04:20:42.706Z,13.27
2023-02-03T04:23:10.355Z,14.15
2023-02-03T04:25:37.434Z,14.05
2023-02-03T04:28:06.028Z,14.98
2023-02-03T04:30:32.954Z,12.55
2023-02-03T04:32:59.901Z,13.23
2023-02-03T04:35:27.618Z,14.95
2023-02-03T04:37:54.524Z,12.35
2023-02-03T04:40:21.466Z,13.88
2023-02-03T04:42:48.323Z,17.80
2023-02-03T04:45:15.233Z,13.63
2023-02-03T04:47:42.146Z,15.88
2023-02-03T04:50:09.550Z,14.00
2023-02-03T04:52:36.497Z,15.32
2023-02-03T04:55:04.221Z,15.52
2023-02-03T04:57:31.463Z,16.42
2023-02-03T04:59:58.309Z,13.82
2023-02-03T05:02:25.189Z,15.00
2023-02-03T05:04:52.391Z,13.65
2023-02-03T05:07:19.326Z,16.13
2023-02-03T05:09:46.198Z,15.27
2023-02-03T05:12:13.140Z,14.43
2023-02-03T05:14:40.060Z,12.93
2023-02-03T05:17:06.885Z,15.23
2023-02-03T05:19:33.772Z,15.70
2023-02-03T05:22:00.666Z,16.48
2023-02-03T05:24:27.577Z,15.70
2023-02-03T05:26:54.485Z,15.57
2023-02-03T05:29:21.424Z,14.98
2023-02-03T05:31:48.416Z,13.25
2023-02-03T05:34:15.316Z,12.80
2023-02-03T05:36:42.188Z,15.13
2023-02-03T05:39:09.289Z,14.38
2023-02-03T05:41:57.127Z,14.00
2023-02-03T05:44:27.238Z,15.25
2023-02-03T05:46:56.472Z,15.75
2023-02-03T05:49:23.964Z,13.27
2023-02-03T05:51:53.795Z,16.38
2023-02-03T05:54:20.807Z,15.10
2023-02-03T05:56:47.832Z,12.75
2023-02-03T05:59:14.726Z,15.63
2023-02-03T06:01:41.712Z,16.17
2023-02-03T06:04:08.684Z,15.93
2023-02-03T06:06:35.902Z,15.85
2023-02-03T06:09:06.000Z,15.35
2023-02-03T06:11:33.885Z,14.27
2023-02-03T06:14:02.586Z,14.82
2023-02-03T06:16:29.660Z,17.27
2023-02-03T06:18:59.658Z,19.08
2023-02-03T06:21:27.423Z,28.58
2023-02-03T06:23:55.927Z,19.48
2023-02-03T06:26:23.329Z,17.05
2023-02-03T06:28:50.271Z,18.08
2023-02-03T06:31:17.252Z,20.25
2023-02-03T06:33:44.132Z,15.52
2023-02-03T06:36:11.463Z,18.60
2023-02-03T06:38:38.444Z,14.45
2023-02-03T06:41:05.524Z,16.25
2023-02-03T06:43:32.485Z,14.10
2023-02-03T06:45:59.437Z,13.32
2023-02-03T06:48:26.477Z,15.35
2023-02-03T06:50:53.618Z,16.45
2023-02-03T06:53:20.490Z,15.07
2023-02-03T06:55:48.068Z,15.10
2023-02-03T06:58:15.615Z,17.70
2023-02-03T07:00:42.541Z,23.30
2023-02-03T07:03:09.430Z,17.33
2023-02-03T07:05:36.864Z,22.00
2023-02-03T07:08:03.860Z,14.25
2023-02-03T07:10:30.964Z,19.65
2023-02-03T07:13:06.235Z,19.73
2023-02-03T07:15:33.460Z,20.35
2023-02-03T07:18:00.416Z,18.10
2023-02-03T07:20:29.254Z,18.15
2023-02-03T07:22:57.660Z,20.88
2023-02-03T07:25:26.011Z,25.33
2023-02-03T07:27:53.256Z,19.35
2023-02-03T07:30:20.504Z,18.25
2023-02-03T07:32:49.561Z,20.33
2023-02-03T07:35:17.131Z,17.15
2023-02-03T07:37:44.121Z,18.50
2023-02-03T07:40:13.446Z,23.05
2023-02-03T07:42:44.990Z,18.88
2023-02-03T07:45:13.284Z,22.85
2023-02-03T07:47:41.472Z,16.40
2023-02-03T07:50:09.583Z,27.13
2023-02-03T07:52:37.167Z,81.97
2023-02-03T07:55:04.690Z,41.63
2023-02-03T07:57:31.652Z,26.48
2023-02-03T07:59:58.574Z,19.23
2023-02-03T08:02:25.619Z,34.92
2023-02-03T08:04:52.593Z,38.58
2023-02-03T08:07:19.554Z,29.23
2023-02-03T08:09:46.467Z,21.75
2023-02-03T08:12:13.382Z,20.00
2023-02-03T08:14:40.278Z,15.13
2023-02-03T08:17:07.271Z,15.70
2023-02-03T08:19:34.170Z,19.50
2023-02-03T08:22:01.366Z,18.85
2023-02-03T08:24:28.398Z,40.97
2023-02-03T08:26:55.337Z,37.30
2023-02-03T08:29:22.562Z,18.63
2023-02-03T08:31:49.590Z,15.77
2023-02-03T08:34:16.517Z,15.20
2023-02-03T08:36:44.584Z,19.17
2023-02-03T08:39:11.648Z,21.75
2023-02-03T08:41:38.666Z,19.85
2023-02-03T08:44:05.858Z,17.58
2023-02-03T08:46:33.288Z,18.23
2023-02-03T08:49:02.837Z,17.80
2023-02-03T08:51:30.248Z,19.90
2023-02-03T08:53:57.276Z,18.05
2023-02-03T08:56:26.390Z,18.13
2023-02-03T08:58:55.968Z,21.20
2023-02-03T09:01:23.050Z,22.55
2023-02-03T09:03:50.000Z,24.40
2023-02-03T09:06:17.249Z,23.35
2023-02-03T09:08:46.130Z,27.17
2023-02-03T09:11:16.258Z,23.98
2023-02-03T09:13:46.050Z,28.27
2023-02-03T09:16:17.315Z,38.92
2023-02-03T09:18:46.266Z,29.38
2023-02-03T09:21:31.535Z,24.65
2023-02-03T09:24:03.863Z,31.25
2023-02-03T09:26:30.768Z,34.45
2023-02-03T09:28:57.676Z,32.72
2023-02-03T09:31:24.662Z,28.48
2023-02-03T09:33:51.684Z,34.17
2023-02-03T09:36:18.641Z,32.20
2023-02-03T09:38:45.662Z,30.98
2023-02-03T09:41:37.153Z,30.75
2023-02-03T09:44:04.805Z,23.38
2023-02-03T09:46:39.074Z,29.92
2023-02-03T09:49:38.452Z,27.88
2023-02-03T09:52:17.611Z,32.47
2023-02-03T09:55:00.581Z,30.20
2023-02-03T09:57:30.712Z,26.67
2023-02-03T09:59:59.912Z,29.35
2023-02-03T10:02:56.840Z,38.45
2023-02-03T10:05:32.953Z,36.75
2023-02-03T10:08:15.417Z,38.38
2023-02-03T10:11:09.520Z,35.47
2023-02-03T10:14:02.360Z,33.03
2023-02-03T10:16:29.373Z,37.40
2023-02-03T10:19:01.564Z,39.33
2023-02-03T10:21:45.184Z,36.58
2023-02-03T10:24:18.913Z,38.10
2023-02-03T10:26:46.531Z,39.40
2023-02-03T10:29:38.540Z,32.75
2023-02-03T10:32:13.176Z,34.78
2023-02-03T10:34:44.449Z,35.00
2023-02-03T10:37:17.051Z,34.13
2023-02-03T10:39:49.293Z,31.33
2023-02-03T10:42:17.763Z,36.08
2023-02-03T10:44:54.421Z,31.98
2023-02-03T10:47:34.895Z,32.35
2023-02-03T10:50:13.639Z,33.53
2023-02-03T10:52:40.675Z,33.72
2023-02-03T10:55:29.125Z,35.75
2023-02-03T10:57:57.035Z,35.30
2023-02-03T11:00:29.082Z,30.50
2023-02-03T11:03:13.496Z,35.42
2023-02-03T11:05:42.019Z,38.13
2023-02-03T11:08:15.813Z,37.03
2023-02-03T11:10:43.909Z,30.02
2023-02-03T11:13:10.775Z,35.88
2023-02-03T11:15:38.138Z,32.28
2023-02-03T11:18:05.238Z,34.05
2023-02-03T11:20:35.542Z,30.98
2023-02-03T11:23:05.147Z,27.73
2023-02-03T11:25:33.373Z,24.08
2023-02-03T11:28:06.905Z,26.10
2023-02-03T11:30:34.034Z,24.77
2023-02-03T11:33:02.440Z,26.52
2023-02-03T11:35:31.809Z,26.88
2023-02-03T11:38:01.511Z,25.25
2023-02-03T11:40:31.131Z,23.92
2023-02-03T11:42:58.101Z,31.88
2023-02-03T11:45:25.011Z,23.55
2023-02-03T11:48:00.981Z,25.45
2023-02-03T11:50:34.119Z,23.83
2023-02-03T11:53:31.031Z,19.77
2023-02-03T11:56:08.474Z,24.05
2023-02-03T11:58:48.035Z,20.15
2023-02-03T12:01:40.982Z,20.77
2023-02-03T12:04:26.762Z,22.17
2023-02-03T12:07:14.648Z,17.17
2023-02-03T12:10:02.933Z,16.88
2023-02-03T12:13:12.256Z,18.65
2023-02-03T12:16:12.074Z,16.75
2023-02-03T12:18:54.925Z,12.73
2023-02-03T12:21:29.095Z,12.52
2023-02-03T12:24:32.976Z,12.77
2023-02-03T12:27:38.080Z,13.00
2023-02-03T12:30:35.033Z,14.10
2023-02-03T12:33:11.502Z,13.65
2023-02-03T12:35:50.095Z,14.98
2023-02-03T12:38:21.578Z,12.00
2023-02-03T12:41:11.260Z,12.18
2023-02-03T12:43:42.899Z,11.65
2023-02-03T12:46:32.899Z,12.95
2023-02-03T12:49:05.681Z,13.20
2023-02-03T12:51:35.616Z,12.13
2023-02-03T12:54:10.803Z,13.07
2023-02-03T12:56:43.416Z,10.00
2023-02-03T12:59:22.864Z,15.57
2023-02-03T13:02:01.490Z,13.27
2023-02-03T13:04:36.108Z,10.63
2023-02-03T13:07:22.949Z,12.23
2023-02-03T13:10:31.475Z,13.25
2023-02-03T13:12:59.847Z,16.83
2023-02-03T13:15:49.821Z,15.48
2023-02-03T13:18:29.436Z,16.55
2023-02-03T13:20:57.043Z,14.52
2023-02-03T13:23:24.760Z,14.40
2023-02-03T13:25:57.415Z,17.77
2023-02-03T13:28:42.778Z,19.58
2023-02-03T13:31:31.717Z,15.67
2023-02-03T13:34:23.212Z,17.50
2023-02-03T13:37:17.431Z,13.45
2023-02-03T13:40:09.250Z,15.73
2023-02-03T13:42:41.585Z,17.42
2023-02-03T13:45:14.911Z,15.02
2023-02-03T13:47:47.381Z,15.25
2023-02-03T13:50:30.466Z,15.60
2023-02-03T13:53:08.088Z,15.60
2023-02-03T13:55:43.266Z,20.20
2023-02-03T13:58:31.285Z,17.88
2023-02-03T14:01:36.444Z,20.13
2023-02-03T14:04:05.917Z,22.38
2023-02-03T14:06:35.935Z,20.63
2023-02-03T14:09:19.810Z,20.52
2023-02-03T14:11:49.201Z,21.85
2023-02-03T14:14:16.228Z,20.00
2023-02-03T14:16:48.308Z,22.55
2023-02-03T14:19:30.297Z,24.55
2023-02-03T14:22:01.166Z,24.73
2023-02-03T14:24:35.070Z,22.90
2023-02-03T14:27:05.378Z,19.50
2023-02-03T14:29:36.683Z,23.60
2023-02-03T14:32:10.565Z,24.40
2023-02-03T14:34:45.154Z,20.33
2023-02-03T14:37:41.098Z,19.45
2023-02-03T14:40:23.093Z,23.27
2023-02-03T14:43:15.302Z,19.50
2023-02-03T14:46:06.842Z,20.73
2023-02-03T14:48:41.875Z,21.05
2023-02-03T14:51:46.544Z,22.98
2023-02-03T14:54:16.733Z,22.58
2023-02-03T14:57:17.046Z,21.00
2023-02-03T15:00:05.713Z,26.73
2023-02-03T15:02:34.642Z,25.30
2023-02-03T15:05:14.185Z,23.65
2023-02-03T15:07:49.733Z,25.77
2023-02-03T15:10:22.602Z,23.63
2023-02-03T15:12:51.784Z,25.42
2023-02-03T15:15:27.915Z,24.60
2023-02-03T15:17:57.636Z,26.95
2023-02-03T15:20:35.408Z,22.20
2023-02-03T15:23:03.174Z,23.80
2023-02-03T15:25:32.964Z,20.50
2023-02-03T15:28:16.441Z,22.02
2023-02-03T15:30:44.965Z,23.90
2023-02-03T15:33:16.721Z,22.73
2023-02-03T15:35:48.208Z,22.08
2023-02-03T15:38:22.724Z,21.40
2023-02-03T15:40:54.648Z,20.77
2023-02-03T15:43:27.366Z,20.67
2023-02-03T15:46:07.362Z,23.92
2023-02-03T15:48:37.296Z,22.65
2023-02-03T15:51:10.707Z,20.92
2023-02-03T15:53:47.994Z,24.13
2023-02-03T15:56:38.733Z,22.50
2023-02-03T15:59:18.593Z,21.85
2023-02-03T16:01:45.642Z,18.55
2023-02-03T16:04:14.469Z,20.55
2023-02-03T16:06:46.039Z,16.67
2023-02-03T16:09:40.281Z,20.80
2023-02-03T16:12:24.707Z,19.83
2023-02-03T16:14:53.698Z,18.23
2023-02-03T16:17:29.950Z,18.92
2023-02-03T16:20:12.023Z,22.38
2023-02-03T16:22:44.726Z,22.15
2023-02-03T16:25:14.654Z,21.33
2023-02-03T16:27:45.466Z,19.08
2023-02-03T16:30:30.862Z,18.58
2023-02-03T16:33:31.950Z,26.07
2023-02-03T16:36:21.731Z,22.42
2023-02-03T16:39:08.513Z,21.63
2023-02-03T16:41:55.100Z,22.10
2023-02-03T16:44:40.756Z,23.00
2023-02-03T16:47:46.910Z,29.83
2023-02-03T16:50:39.669Z,24.52
2023-02-03T16:53:14.419Z,22.60
2023-02-03T16:55:43.919Z,23.65
2023-02-03T16:58:12.533Z,27.80
2023-02-03T17:00:43.421Z,27.02
2023-02-03T17:03:12.584Z,22.85
2023-02-03T17:05:41.678Z,24.27
2023-02-03T17:08:08.922Z,19.67
2023-02-03T17:10:40.495Z,24.10
2023-02-03T17:13:08.351Z,22.70
2023-02-03T17:15:43.477Z,20.70
2023-02-03T17:18:10.931Z,22.58
2023-02-03T17:20:38.035Z,21.15
2023-02-03T17:23:05.015Z,20.15
2023-02-03T17:25:35.959Z,23.50
2023-02-03T17:28:04.233Z,22.85
2023-02-03T17:30:35.415Z,24.67
2023-02-03T17:33:11.691Z,21.52
2023-02-03T17:35:41.894Z,21.42
2023-02-03T17:38:09.547Z,25.60
2023-02-03T17:54:30.431Z,26.73
2023-02-03T17:56:57.339Z,22.30
2023-02-03T17:59:24.310Z,25.20
2023-02-03T18:01:52.527Z,27.90
2023-02-03T18:04:19.476Z,28.75
2023-02-03T18:06:46.627Z,25.90
2023-02-03T18:09:16.705Z,28.20
2023-02-03T18:11:45.834Z,30.00
2023-02-03T18:14:14.977Z,27.70
2023-02-03T18:16:43.508Z,29.02
2023-02-03T18:19:14.364Z,28.70
2023-02-03T18:21:42.729Z,27.30
2023-02-03T18:24:12.095Z,28.95
2023-02-03T18:26:50.343Z,28.10
2023-02-03T18:29:17.873Z,30.90
2023-02-03T18:31:44.837Z,27.25
2023-02-03T18:34:11.990Z,28.95
2023-02-03T18:39:07.591Z,30.25
2023-02-03T18:41:36.592Z,29.75
2023-02-03T18:44:03.825Z,25.13
2023-02-03T18:46:32.232Z,31.88
2023-02-03T18:48:59.751Z,26.90
2023-02-03T18:51:27.586Z,30.27
2023-02-03T18:54:00.737Z,25.58
2023-02-03T18:56:35.227Z,23.83
2023-02-03T18:59:07.907Z,24.35
2023-02-03T19:01:35.323Z,27.95
2023-02-03T19:04:05.974Z,26.10
2023-02-03T19:06:34.376Z,22.92
2023-02-03T19:09:02.319Z,24.55
2023-02-03T19:11:29.346Z,23.60
2023-02-03T19:13:56.247Z,27.10
2023-02-03T19:16:23.367Z,22.75
2023-02-03T19:18:50.269Z,24.40
2023-02-03T19:21:17.473Z,21.40
2023-02-03T19:23:44.787Z,20.35
2023-02-03T19:26:12.171Z,20.80
2023-02-03T19:28:40.469Z,18.45
2023-02-03T19:31:15.569Z,20.65
2023-02-03T19:33:43.330Z,17.20
2023-02-03T19:36:11.292Z,18.75
2023-02-03T19:38:38.390Z,19.10
2023-02-03T19:41:07.147Z,18.60
2023-02-03T19:43:34.132Z,15.93
2023-02-03T19:46:02.271Z,16.23
2023-02-03T19:48:29.268Z,16.63
2023-02-03T19:50:56.207Z,14.73
2023-02-03T19:53:24.386Z,12.15
2023-02-03T19:55:51.410Z,16.55
2023-02-03T19:58:18.624Z,15.13
2023-02-03T20:00:45.683Z,12.38
2023-02-03T20:03:12.669Z,12.15
2023-02-03T20:05:39.761Z,15.43
2023-02-03T20:08:06.747Z,18.75
2023-02-03T20:10:33.768Z,15.25
2023-02-03T20:13:01.000Z,14.00
2023-02-03T20:15:28.211Z,10.35
2023-02-03T20:17:55.303Z,11.43
2023-02-03T20:20:22.424Z,13.05
2023-02-03T20:22:49.474Z,11.88
2023-02-03T20:25:17.030Z,10.35
2023-02-03T20:27:44.110Z,9.30
2023-02-03T20:30:11.787Z,12.45
2023-02-03T20:32:38.974Z,12.57
2023-02-03T20:35:06.620Z,9.55
2023-02-03T20:37:36.174Z,9.65
2023-02-03T20:40:13.016Z,10.68
2023-02-03T20:42:40.228Z,20.30
2023-02-03T20:45:18.127Z,11.90
2023-02-03T20:47:45.690Z,9.98
2023-02-03T20:50:18.837Z,10.43
2023-02-03T20:52:50.137Z,13.00
2023-02-03T20:55:23.004Z,10.23
2023-02-03T20:57:55.117Z,9.70
2023-02-03T21:00:25.248Z,12.82
2023-02-03T21:03:11.201Z,13.75
2023-02-03T21:05:43.442Z,12.48
2023-02-03T21:08:14.030Z,11.45
2023-02-03T21:10:41.529Z,13.25
2023-02-03T21:13:29.932Z,11.48
2023-02-03T21:16:04.924Z,10.20
2023-02-03T21:18:50.477Z,14.32
2023-02-03T21:21:27.464Z,11.80
2023-02-03T21:23:54.786Z,11.50
2023-02-03T21:26:30.131Z,9.05
2023-02-03T21:28:58.845Z,11.50
2023-02-03T21:31:31.678Z,13.75
2023-02-03T21:34:30.688Z,10.60
2023-02-03T21:37:07.050Z,9.30
2023-02-03T21:39:35.012Z,8.35
2023-02-03T21:42:43.435Z,16.05
2023-02-03T21:45:22.477Z,11.00
2023-02-03T21:47:51.240Z,12.63
2023-02-03T21:50:36.164Z,12.57
2023-02-03T21:53:08.940Z,12.45
2023-02-03T21:55:36.802Z,14.25
2023-02-03T21:58:32.068Z,10.85
2023-02-03T22:01:00.914Z,10.75
2023-02-03T22:03:36.050Z,10.48
2023-02-03T22:06:09.161Z,10.02
2023-02-03T22:08:56.622Z,10.77
2023-02-03T22:11:26.274Z,13.98
2023-02-03T22:13:53.670Z,8.68
2023-02-03T22:16:21.406Z,13.52
2023-02-03T22:18:51.495Z,12.32
2023-02-03T22:21:18.879Z,13.75
2023-02-03T22:23:46.731Z,10.18
2023-02-03T22:26:14.840Z,12.82
2023-02-03T22:28:42.545Z,10.98
2023-02-03T22:31:11.388Z,8.77
2023-02-03T22:33:39.128Z,10.85
2023-02-03T22:36:06.892Z,10.38
2023-02-03T22:38:35.086Z,10.05
2023-02-03T22:41:02.791Z,11.70
2023-02-03T22:43:31.147Z,13.45
2023-02-03T22:45:58.664Z,14.57
2023-02-03T22:48:25.631Z,12.30
2023-02-03T22:50:52.588Z,11.82
2023-02-03T22:53:19.508Z,11.82
2023-02-03T22:55:46.430Z,8.63
2023-02-03T22:58:13.390Z,13.38
2023-02-03T23:00:40.352Z,11.82
2023-02-03T23:03:07.420Z,13.70
2023-02-03T23:05:34.434Z,9.43
2023-02-03T23:08:01.480Z,11.38
2023-02-03T23:10:32.539Z,13.40
2023-02-03T23:13:00.812Z,9.18
2023-02-03T23:15:28.802Z,10.90
2023-02-03T23:17:56.043Z,12.25
2023-02-03T23:20:23.169Z,12.02
2023-02-03T23:22:51.115Z,11.55
2023-02-03T23:25:18.271Z,14.82
2023-02-03T23:27:45.451Z,11.75
2023-02-03T23:30:13.858Z,13.00
2023-02-03T23:32:40.840Z,11.60
2023-02-03T23:35:27.386Z,12.43
2023-02-03T23:37:54.880Z,10.35
2023-02-03T23:40:22.407Z,11.35
2023-02-03T23:42:49.730Z,16.05
2023-02-03T23:45:17.217Z,8.95
2023-02-03T23:47:45.274Z,10.73
2023-02-03T23:50:15.007Z,8.93
2023-02-03T23:52:42.067Z,13.43
2023-02-03T23:55:15.106Z,10.30
2023-02-03T23:57:42.745Z,11.73
